Time;durP1;ratioP1;P1;durP2;ratioP2;P2;SDS_P1;SDS_P2;PMS_P1;PMS_P2;Temp;Humidity;BMP_temperature;BMP_pressure;BME280_temperature;BME280_humidity;BME280_pressure;Samples;Min_cycle;Max_cycle;Signal;HPM_P1;HPM_P2
2023/03/24 00:01:42;;;;;;;1999.90;999.90;;;;;;;11.17;84.64;97708.00;5094134;28;20039;-75
2023/03/24 00:04:07;;;;;;;1999.90;999.90;;;;;;;11.11;85.07;97701.00;5094731;28;20028;-74
2023/03/24 00:06:35;;;;;;;1999.90;999.90;;;;;;;11.09;85.52;97712.25;5092178;28;20510;-76
2023/03/24 00:09:02;;;;;;;1999.90;999.90;;;;;;;11.03;86.14;97704.44;5091971;28;20052;-75
2023/03/24 00:11:28;;;;;;;1999.90;999.90;;;;;;;10.94;86.65;97700.81;5093936;28;20028;-75
2023/03/24 00:13:57;;;;;;;1999.90;999.90;;;;;;;10.84;87.71;97707.28;5092673;28;20073;-76
2023/03/24 00:16:23;;;;;;;1999.90;999.90;;;;;;;10.76;88.91;97702.53;5095391;28;20511;-77
2023/03/24 00:18:51;;;;;;;1999.90;999.90;;;;;;;10.69;90.09;97696.63;5094719;28;20023;-74
2023/03/24 00:21:20;;;;;;;1999.90;999.90;;;;;;;10.62;90.85;97696.22;5093071;28;20122;-74
2023/03/24 00:23:48;;;;;;;1999.90;999.90;;;;;;;10.57;91.64;97691.66;5092773;28;20055;-75
2023/03/24 00:26:15;;;;;;;1999.90;999.90;;;;;;;10.50;92.58;97684.94;5092766;28;20028;-75
2023/03/24 00:28:45;;;;;;;1999.90;999.90;;;;;;;10.43;93.16;97685.34;5093757;28;20023;-74
2023/03/24 00:31:13;;;;;;;1999.90;999.90;;;;;;;10.39;94.08;97684.34;5092927;28;20012;-74
2023/03/24 00:33:40;;;;;;;1999.90;999.90;;;;;;;10.34;94.63;97687.16;5092931;28;20027;-73
2023/03/24 00:36:10;;;;;;;1999.90;999.90;;;;;;;10.37;95.40;97678.34;5092983;28;20026;-74
2023/03/24 00:38:37;;;;;;;1999.90;999.90;;;;;;;10.36;95.25;97679.47;5092923;28;20115;-74
2023/03/24 00:41:04;;;;;;;1999.90;999.90;;;;;;;10.19;96.43;97669.09;5092981;28;20032;-75
2023/03/24 00:43:30;;;;;;;1999.90;999.90;;;;;;;10.15;96.53;97672.72;5092235;28;20074;-76
2023/03/24 00:46:01;;;;;;;1999.90;999.90;;;;;;;10.06;97.22;97669.03;5093218;28;20028;-74
2023/03/24 00:48:28;;;;;;;1999.90;999.90;;;;;;;9.97;98.53;97665.34;5092942;28;20107;-74
2023/03/24 00:50:54;;;;;;;1999.90;999.90;;;;;;;10.05;98.53;97673.69;5093947;28;20024;-73
2023/03/24 00:53:27;;;;;;;1999.90;999.90;;;;;;;10.00;99.00;97664.75;5092913;28;20020;-76
2023/03/24 00:55:53;;;;;;;1999.90;999.90;;;;;;;9.91;99.71;97666.53;5093711;28;20513;-74
2023/03/24 00:58:22;;;;;;;1999.90;999.90;;;;;;;9.88;100.00;97667.94;5095148;28;20477;-74
2023/03/24 01:00:54;;;;;;;1999.90;999.90;;;;;;;9.74;100.00;97650.72;5094409;28;20038;-75
2023/03/24 01:03:23;;;;;;;1999.90;999.90;;;;;;;9.60;100.00;97645.19;5097018;28;20401;-77
2023/03/24 01:05:49;;;;;;;1999.90;999.90;;;;;;;9.44;100.00;97654.69;5093625;28;20035;-75
2023/03/24 01:08:20;;;;;;;1999.90;999.90;;;;;;;9.35;100.00;97653.75;5092023;28;20569;-75
2023/03/24 01:10:51;;;;;;;1999.90;999.90;;;;;;;9.17;100.00;97651.81;5092110;28;20024;-75
2023/03/24 01:13:22;;;;;;;1999.90;999.90;;;;;;;9.05;100.00;97641.31;5091681;28;20103;-74
2023/03/24 01:15:48;;;;;;;1999.90;999.90;;;;;;;9.08;100.00;97653.59;5092962;28;20064;-74
2023/03/24 01:18:15;;;;;;;1999.90;999.90;;;;;;;9.07;100.00;97646.50;5095327;28;20032;-74
2023/03/24 01:20:45;;;;;;;1999.90;999.90;;;;;;;9.17;100.00;97645.56;5091900;28;20031;-77
2023/03/24 01:23:13;;;;;;;1999.90;999.90;;;;;;;9.08;100.00;97638.00;5091743;28;20409;-76
2023/03/24 01:25:44;;;;;;;1999.90;999.90;;;;;;;9.00;100.00;97640.56;5091732;28;20024;-74
2023/03/24 01:28:09;;;;;;;1999.90;999.90;;;;;;;8.89;100.00;97636.38;5092096;28;20024;-74
2023/03/24 01:30:35;;;;;;;1999.90;999.90;;;;;;;8.90;100.00;97637.97;5090346;28;20020;-75
2023/03/24 01:33:00;;;;;;;1999.90;999.90;;;;;;;8.83;100.00;97635.63;5091678;28;20028;-74
2023/03/24 01:35:26;;;;;;;1999.90;999.90;;;;;;;8.73;100.00;97640.38;5091181;28;20032;-74
2023/03/24 01:37:51;;;;;;;1999.90;999.90;;;;;;;8.68;100.00;97635.00;5091429;28;20078;-74
2023/03/24 01:40:29;;;;;;;1999.90;999.90;;;;;;;8.78;100.00;97634.84;5092935;28;20480;-74
2023/03/24 01:42:55;;;;;;;1999.90;999.90;;;;;;;8.60;100.00;97625.53;5094232;28;20016;-74
2023/03/24 01:45:43;;;;;;;1999.90;999.90;;;;;;;8.60;100.00;97628.28;5091627;28;20512;-74
2023/03/24 01:48:22;;;;;;;1999.90;999.90;;;;;;;8.46;100.00;97630.88;5090738;28;20077;-76
2023/03/24 01:50:59;;;;;;;1999.90;999.90;;;;;;;8.35;100.00;97620.38;5090614;28;20082;-77
2023/03/24 01:53:26;;;;;;;1999.90;999.90;;;;;;;8.36;100.00;97625.56;5091322;28;20741;-74
2023/03/24 01:55:53;;;;;;;1999.90;999.90;;;;;;;8.29;100.00;97616.09;5091160;28;20381;-75
2023/03/24 01:58:19;;;;;;;1999.90;999.90;;;;;;;8.39;100.00;97613.25;5091584;28;20024;-75
2023/03/24 02:00:44;;;;;;;1999.90;999.90;;;;;;;8.26;100.00;97612.00;5091068;28;20373;-75
2023/03/24 02:03:18;;;;;;;1999.90;999.90;;;;;;;8.25;100.00;97620.44;5091273;28;20063;-74
2023/03/24 02:05:46;;;;;;;1999.90;999.90;;;;;;;8.21;100.00;97622.13;5091109;28;20042;-76
2023/03/24 02:08:22;;;;;;;1999.90;999.90;;;;;;;8.18;100.00;97609.06;5090985;28;20044;-80
2023/03/24 02:10:48;;;;;;;1999.90;999.90;;;;;;;8.16;100.00;97625.72;5093592;28;20020;-74
2023/03/24 02:13:14;;;;;;;1999.90;999.90;;;;;;;8.08;100.00;97624.41;5090963;28;20438;-75
2023/03/24 02:16:07;;;;;;;1999.90;999.90;;;;;;;8.07;100.00;97619.28;5090887;28;20068;-75
2023/03/24 02:19:03;;;;;;;1999.90;999.90;;;;;;;8.13;100.00;97620.84;5089598;28;20043;-76
2023/03/24 02:22:00;;;;;;;1999.90;999.90;;;;;;;8.13;100.00;97620.03;5090959;28;20081;-75
2023/03/24 02:24:47;;;;;;;1999.90;999.90;;;;;;;8.04;100.00;97622.56;5091110;28;20067;-75
2023/03/24 02:27:21;;;;;;;1999.90;999.90;;;;;;;7.87;100.00;97628.44;5090574;28;20093;-76
2023/03/24 02:30:00;;;;;;;1999.90;999.90;;;;;;;7.77;100.00;97616.84;5091339;28;20035;-75
2023/03/24 02:32:44;;;;;;;1999.90;999.90;;;;;;;7.73;100.00;97615.78;5091056;28;20127;-75
2023/03/24 02:35:46;;;;;;;1999.90;999.90;;;;;;;7.69;100.00;97615.53;5091591;28;20109;-74
2023/03/24 02:38:23;;;;;;;1999.90;999.90;;;;;;;7.66;100.00;97626.19;5081899;28;20040;-75
2023/03/24 02:41:21;;;;;;;1999.90;999.90;;;;;;;7.60;100.00;97614.53;5090682;28;20028;-77
2023/03/24 02:44:12;;;;;;;1999.90;999.90;;;;;;;7.51;100.00;97592.56;5091198;28;20508;-75
2023/03/24 02:46:45;;;;;;;1999.90;999.90;;;;;;;7.54;100.00;97608.31;5090986;28;20075;-76
2023/03/24 02:49:29;;;;;;;1999.90;999.90;;;;;;;7.60;100.00;97605.53;5091380;28;20494;-76
2023/03/24 02:51:59;;;;;;;1999.90;999.90;;;;;;;7.51;100.00;97605.34;5089874;28;20063;-76
2023/03/24 02:54:32;;;;;;;1999.90;999.90;;;;;;;7.57;100.00;97603.38;5089616;28;20035;-75
2023/03/24 02:57:12;;;;;;;1999.90;999.90;;;;;;;7.59;100.00;97598.47;5091862;28;20034;-74
2023/03/24 02:59:47;;;;;;;1999.90;999.90;;;;;;;7.54;100.00;97591.16;5088202;28;20089;-75
2023/03/24 03:02:18;;;;;;;1999.90;999.90;;;;;;;7.64;100.00;97603.88;5093471;28;20394;-76
2023/03/24 03:04:53;;;;;;;1999.90;999.90;;;;;;;7.59;100.00;97598.47;5078168;28;20044;-74
2023/03/24 03:07:24;;;;;;;1999.90;999.90;;;;;;;7.46;100.00;97584.41;5096408;28;20104;-74
2023/03/24 03:10:06;;;;;;;1999.90;999.90;;;;;;;7.59;100.00;97595.75;5087495;28;20516;-74
2023/03/24 03:12:36;;;;;;;1999.90;999.90;;;;;;;7.50;100.00;97596.38;5080265;28;20040;-75
2023/03/24 03:15:20;;;;;;;1999.90;999.90;;;;;;;7.46;100.00;97586.31;5075098;28;20107;-75
2023/03/24 03:17:57;;;;;;;1999.90;999.90;;;;;;;7.34;100.00;97581.25;5073351;28;20508;-74
2023/03/24 03:20:25;;;;;;;1999.90;999.90;;;;;;;7.31;100.00;97576.38;5073667;28;20485;-74
2023/03/24 03:23:01;;;;;;;1999.90;999.90;;;;;;;7.33;100.00;97571.44;5091653;28;20020;-75
2023/03/24 03:25:31;;;;;;;1999.90;999.90;;;;;;;7.38;100.00;97579.59;5092684;28;20442;-74
2023/03/24 03:28:01;;;;;;;1999.90;999.90;;;;;;;7.37;100.00;97564.34;5093882;28;20056;-74
2023/03/24 03:30:52;;;;;;;1999.90;999.90;;;;;;;7.52;100.00;97571.56;5093264;28;20111;-74
2023/03/24 03:33:25;;;;;;;1999.90;999.90;;;;;;;7.45;100.00;97568.38;5094488;28;20028;-74
2023/03/24 03:36:05;;;;;;;1999.90;999.90;;;;;;;7.43;100.00;97568.66;5095353;28;20028;-74
2023/03/24 03:38:44;;;;;;;1999.90;999.90;;;;;;;7.48;100.00;97565.09;5094526;28;20103;-74
2023/03/24 03:41:10;;;;;;;1999.90;999.90;;;;;;;7.51;100.00;97581.66;5095335;28;20116;-74
2023/03/24 03:43:36;;;;;;;1999.90;999.90;;;;;;;7.47;100.00;97580.59;5093393;28;20028;-75
2023/03/24 03:46:33;;;;;;;1999.90;999.90;;;;;;;7.43;100.00;97581.44;5092853;28;20078;-75
2023/03/24 03:48:59;;;;;;;1999.90;999.90;;;;;;;7.33;100.00;97582.34;5093295;28;20031;-75
2023/03/24 03:51:25;;;;;;;1999.90;999.90;;;;;;;7.29;100.00;97584.03;5092247;28;20032;-74
2023/03/24 03:53:55;;;;;;;1999.90;999.90;;;;;;;7.35;100.00;97574.72;5087482;28;20058;-75
2023/03/24 03:56:23;;;;;;;1999.90;999.90;;;;;;;7.16;100.00;97556.63;5073165;28;20028;-76
2023/03/24 03:58:49;;;;;;;1999.90;999.90;;;;;;;7.15;100.00;97572.13;5086652;28;20032;-75
2023/03/24 04:01:18;;;;;;;1999.90;999.90;;;;;;;7.19;100.00;97584.09;5092960;28;20461;-74
2023/03/24 04:04:19;;;;;;;1999.90;999.90;;;;;;;7.07;100.00;97580.91;5087112;28;20385;-74
2023/03/24 04:07:23;;;;;;;1999.90;999.90;;;;;;;7.14;100.00;97584.09;5071987;28;20123;-74
2023/03/24 04:10:13;;;;;;;1999.90;999.90;;;;;;;7.14;100.00;97591.47;5079663;28;20556;-73
2023/03/24 04:12:47;;;;;;;1999.90;999.90;;;;;;;7.01;100.00;97590.19;5093296;28;20054;-75
2023/03/24 04:15:35;;;;;;;1999.90;999.90;;;;;;;6.95;100.00;97580.44;5077655;28;20083;-74
2023/03/24 04:18:19;;;;;;;1999.90;999.90;;;;;;;6.99;100.00;97589.66;5072928;28;20499;-76
2023/03/24 04:21:22;;;;;;;1999.90;999.90;;;;;;;6.97;100.00;97581.78;5073394;28;20481;-75
2023/03/24 04:24:15;;;;;;;1999.90;999.90;;;;;;;6.87;100.00;97587.28;5072701;28;20075;-75
2023/03/24 04:26:47;;;;;;;1999.90;999.90;;;;;;;6.82;100.00;97591.94;5084408;28;20034;-74
2023/03/24 04:29:16;;;;;;;1999.90;999.90;;;;;;;6.78;100.00;97590.84;5096320;28;20054;-74
2023/03/24 04:31:50;;;;;;;1999.90;999.90;;;;;;;6.73;100.00;97582.75;5096589;28;20024;-74
2023/03/24 04:34:29;;;;;;;1999.90;999.90;;;;;;;6.73;100.00;97569.97;5095646;28;20032;-76
2023/03/24 04:37:07;;;;;;;1999.90;999.90;;;;;;;6.70;100.00;97589.56;5092955;28;20044;-75
2023/03/24 04:39:37;;;;;;;1999.90;999.90;;;;;;;6.61;100.00;97588.47;5092774;28;20035;-75
2023/03/24 04:42:08;;;;;;;1999.90;999.90;;;;;;;6.66;100.00;97583.03;5090911;28;20046;-75
2023/03/24 04:44:34;;;;;;;1999.90;999.90;;;;;;;6.73;100.00;97580.84;5091725;28;20055;-75
2023/03/24 04:47:01;;;;;;;1999.90;999.90;;;;;;;6.70;100.00;97575.16;5092660;28;20377;-74
2023/03/24 04:49:27;;;;;;;1999.90;999.90;;;;;;;6.78;100.00;97588.13;5092365;28;20430;-74
2023/03/24 04:51:53;;;;;;;1999.90;999.90;;;;;;;6.81;100.00;97582.13;5088325;28;20056;-86
2023/03/24 04:54:20;;;;;;;1999.90;999.90;;;;;;;6.83;100.00;97585.38;5076829;28;20045;-81
2023/03/24 04:56:51;;;;;;;1999.90;999.90;;;;;;;6.79;100.00;97587.06;5074771;28;20483;-83
2023/03/24 04:59:17;;;;;;;1999.90;999.90;;;;;;;6.76;100.00;97587.63;5097501;28;20043;-83
2023/03/24 05:01:48;;;;;;;1999.90;999.90;;;;;;;6.73;100.00;97601.75;5095475;28;20487;-82
2023/03/24 05:04:18;;;;;;;1999.90;999.90;;;;;;;6.75;100.00;97594.94;5093472;28;20048;-83
2023/03/24 05:06:45;;;;;;;1999.90;999.90;;;;;;;6.76;100.00;97591.16;5094306;28;20500;-87
2023/03/24 05:09:12;;;;;;;1999.90;999.90;;;;;;;6.84;100.00;97596.00;5103302;28;20062;-88
2023/03/24 05:11:37;;;;;;;1999.90;999.90;;;;;;;6.86;100.00;97579.41;5103586;28;20059;-80
2023/03/24 05:14:02;;;;;;;1999.90;999.90;;;;;;;6.90;100.00;97586.72;5102864;28;20085;-84
2023/03/24 05:16:28;;;;;;;1999.90;999.90;;;;;;;6.95;100.00;97577.72;5108237;28;20032;-76
2023/03/24 05:18:53;;;;;;;1999.90;999.90;;;;;;;7.08;100.00;97582.50;5107797;28;20005;-87
2023/03/24 05:21:20;;;;;;;1999.90;999.90;;;;;;;7.16;100.00;97595.53;5109521;28;20548;-83
2023/03/24 05:23:45;;;;;;;1999.90;999.90;;;;;;;7.22;100.00;97594.41;5110759;28;20077;-85
2023/03/24 05:26:11;;;;;;;1999.90;999.90;;;;;;;7.30;100.00;97598.44;5111662;28;20024;-88
2023/03/24 05:28:36;;;;;;;1999.90;999.90;;;;;;;7.34;100.00;97591.31;5109445;28;20028;-81
2023/03/24 05:31:02;;;;;;;1999.90;999.90;;;;;;;7.38;100.00;97590.47;5105632;28;20079;-85
2023/03/24 05:33:27;;;;;;;1999.90;999.90;;;;;;;7.41;100.00;97587.19;5099567;28;20028;-84
2023/03/24 05:35:53;;;;;;;1999.90;999.90;;;;;;;7.45;100.00;97588.25;5099093;28;20020;-85
2023/03/24 05:38:18;;;;;;;1999.90;999.90;;;;;;;7.50;100.00;97590.09;5099605;28;20032;-84
2023/03/24 05:40:43;;;;;;;1999.90;999.90;;;;;;;7.64;100.00;97591.09;5095156;28;20115;-83
2023/03/24 05:43:11;;;;;;;1999.90;999.90;;;;;;;7.76;100.00;97580.63;5096004;28;20016;-86
2023/03/24 05:45:37;;;;;;;1999.90;999.90;;;;;;;7.93;100.00;97591.06;5094925;28;20050;-85
2023/03/24 05:48:05;;;;;;;1999.90;999.90;;;;;;;8.20;100.00;97596.81;5096015;28;20032;-84
2023/03/24 05:50:31;;;;;;;1999.90;999.90;;;;;;;8.49;100.00;97597.59;5095315;28;20036;-82
2023/03/24 05:52:56;;;;;;;1999.90;999.90;;;;;;;8.76;100.00;97598.91;5098123;28;20031;-83
2023/03/24 05:55:22;;;;;;;1999.90;999.90;;;;;;;8.85;100.00;97597.97;5101947;28;20028;-90
2023/03/24 05:57:47;;;;;;;1999.90;999.90;;;;;;;9.05;100.00;97594.16;5105209;28;20031;-90
2023/03/24 06:00:16;;;;;;;1999.90;999.90;;;;;;;9.21;100.00;97605.66;5101965;28;20028;-90
2023/03/24 06:02:43;;;;;;;1999.90;999.90;;;;;;;9.26;100.00;97600.94;5100880;28;20016;-81
2023/03/24 06:05:10;;;;;;;1999.90;999.90;;;;;;;9.35;100.00;97601.06;5099957;28;20047;-85
2023/03/24 06:07:41;;;;;;;1999.90;999.90;;;;;;;9.43;100.00;97590.28;5099885;28;20028;-86
2023/03/24 06:10:09;;;;;;;1999.90;999.90;;;;;;;9.72;100.00;97609.22;5097877;28;20044;-85
2023/03/24 06:12:34;;;;;;;1999.90;999.90;;;;;;;9.79;100.00;97606.09;5086460;28;20059;-74
2023/03/24 06:15:00;;;;;;;1999.90;999.90;;;;;;;10.02;100.00;97608.69;5089290;28;20024;-75
2023/03/24 06:17:28;;;;;;;1999.90;999.90;;;;;;;10.21;100.00;97612.19;5089116;28;20024;-73
2023/03/24 06:20:02;;;;;;;1999.90;999.90;;;;;;;10.36;100.00;97608.41;5089382;28;20020;-75
2023/03/24 06:22:32;;;;;;;1999.90;999.90;;;;;;;10.53;100.00;97602.31;5089258;28;20077;-74
2023/03/24 06:25:09;;;;;;;1999.90;999.90;;;;;;;10.75;100.00;97607.88;5081650;28;20036;-73
2023/03/24 06:27:45;;;;;;;1999.90;999.90;;;;;;;10.83;99.99;97606.38;5081646;28;20354;-75
2023/03/24 06:30:16;;;;;;;;;;;;;;;10.96;97.43;97611.84;5090642;28;20059;-75
2023/03/24 06:32:45;;;;;;;1999.90;999.90;;;;;;;10.93;97.09;97600.69;5091749;28;19959;-75
2023/03/24 06:35:11;;;;;;;1999.90;999.90;;;;;;;11.13;95.94;97594.75;5093804;28;20036;-75
2023/03/24 06:37:40;;;;;;;1999.90;999.90;;;;;;;11.34;94.45;97595.91;5093194;28;20063;-76
2023/03/24 06:40:21;;;;;;;1999.90;999.90;;;;;;;11.46;92.48;97593.47;5094101;28;20098;-77
2023/03/24 06:42:49;;;;;;;1999.90;999.90;;;;;;;11.69;92.23;97595.06;5090562;28;20404;-75
2023/03/24 06:45:15;;;;;;;1999.90;999.90;;;;;;;11.91;91.05;97604.44;5093332;28;20119;-76
2023/03/24 06:47:40;;;;;;;1999.90;999.90;;;;;;;12.40;87.72;97609.75;5093327;28;20114;-75
2023/03/24 06:50:33;;;;;;;1999.90;999.90;;;;;;;12.86;84.56;97603.78;5093967;28;20113;-76
2023/03/24 06:53:00;;;;;;;1999.90;999.90;;;;;;;13.49;82.54;97602.47;5093352;28;20028;-74
2023/03/24 06:55:26;;;;;;;1999.90;999.90;;;;;;;13.97;77.11;97605.03;5094211;28;20032;-75
2023/03/24 06:57:52;;;;;;;1999.90;999.90;;;;;;;14.09;75.66;97607.94;5093464;28;20039;-75
2023/03/24 07:00:18;;;;;;;1999.90;999.90;;;;;;;14.26;74.40;97618.88;5093914;28;20016;-76
2023/03/24 07:02:44;;;;;;;1999.90;999.90;;;;;;;14.24;71.40;97610.16;5095571;28;20027;-75
2023/03/24 07:05:11;;;;;;;1999.90;999.90;;;;;;;14.34;70.84;97609.84;5097121;28;20024;-75
2023/03/24 07:07:36;;;;;;;1999.90;999.90;;;;;;;14.54;70.01;97620.13;5096587;28;20035;-76
2023/03/24 07:10:03;;;;;;;1999.90;999.90;;;;;;;14.63;69.73;97615.38;5098210;28;20030;-77
2023/03/24 07:12:29;;;;;;;1999.90;999.90;;;;;;;14.94;68.38;97615.13;5095195;28;20427;-76
2023/03/24 07:14:55;;;;;;;1999.90;999.90;;;;;;;15.23;67.70;97615.09;5096443;28;20055;-75
2023/03/24 07:17:21;;;;;;;1999.90;999.90;;;;;;;15.68;65.52;97612.53;5097613;28;20397;-75
2023/03/24 07:19:46;;;;;;;1999.90;999.90;;;;;;;15.66;65.45;97611.28;5095474;28;20393;-75
2023/03/24 07:22:12;;;;;;;1999.90;999.90;;;;;;;16.05;63.37;97625.34;5095348;28;20351;-75
2023/03/24 07:24:37;;;;;;;1999.90;999.90;;;;;;;16.36;61.84;97624.06;5096932;28;20023;-74
2023/03/24 07:27:03;;;;;;;1999.90;999.90;;;;;;;16.60;60.35;97630.47;5094442;28;20044;-76
2023/03/24 07:29:28;;;;;;;1999.90;999.90;;;;;;;16.77;59.33;97628.69;5098237;28;20020;-83
2023/03/24 07:31:57;;;;;;;1999.90;999.90;;;;;;;16.66;59.02;97633.03;5093669;28;20547;-76
2023/03/24 07:34:27;;;;;;;1999.90;999.90;;;;;;;16.56;58.50;97631.53;5092178;28;20039;-75
2023/03/24 07:36:52;;;;;;;1999.90;999.90;;;;;;;16.34;58.59;97629.94;5093477;28;20035;-77
2023/03/24 07:39:18;;;;;;;1999.90;999.90;;;;;;;16.62;58.76;97630.16;5093768;28;20028;-76
2023/03/24 07:41:44;;;;;;;1999.90;999.90;;;;;;;18.43;55.68;97633.78;5094036;28;20024;-74
2023/03/24 07:44:09;;;;;;;1999.90;999.90;;;;;;;19.56;48.66;97637.50;5092361;28;20077;-74
2023/03/24 07:46:35;;;;;;;1999.90;999.90;;;;;;;19.99;46.88;97649.56;5093211;28;20012;-75
2023/03/24 07:49:03;;;;;;;1999.90;999.90;;;;;;;20.43;45.73;97639.78;5094067;28;20035;-74
2023/03/24 07:51:28;;;;;;;1999.90;999.90;;;;;;;20.32;45.16;97641.56;5093434;28;20101;-76
2023/03/24 07:53:53;;;;;;;1999.90;999.90;;;;;;;20.81;44.15;97639.72;5093191;28;20052;-75
2023/03/24 07:56:20;;;;;;;1999.90;999.90;;;;;;;20.68;43.74;97643.84;5093376;28;20465;-75
2023/03/24 07:58:46;;;;;;;1999.90;999.90;;;;;;;20.81;43.62;97648.06;5093187;28;20032;-73
2023/03/24 08:01:12;;;;;;;1999.90;999.90;;;;;;;21.13;42.92;97642.28;5091809;28;20054;-74
2023/03/24 08:03:39;;;;;;;1999.90;999.90;;;;;;;21.50;42.01;97645.25;5091799;28;20057;-74
2023/03/24 08:06:06;;;;;;;1999.90;999.90;;;;;;;21.78;40.86;97645.69;5093483;28;20031;-74
2023/03/24 08:08:32;;;;;;;1999.90;999.90;;;;;;;21.40;42.61;97649.47;5093247;28;20044;-73
2023/03/24 08:10:57;;;;;;;1999.90;999.90;;;;;;;21.85;40.66;97641.03;5093538;28;20031;-74
2023/03/24 08:13:23;;;;;;;1999.90;999.90;;;;;;;21.85;40.05;97640.22;5093015;28;20021;-74
2023/03/24 08:15:48;;;;;;;1999.90;999.90;;;;;;;23.03;37.53;97632.88;5093114;28;20081;-74
2023/03/24 08:18:14;;;;;;;1999.90;999.90;;;;;;;23.52;36.42;97642.88;5093517;28;20020;-74
2023/03/24 08:20:40;;;;;;;1999.90;999.90;;;;;;;25.99;32.54;97637.97;5093131;28;20016;-74
2023/03/24 08:23:07;;;;;;;1999.90;999.90;;;;;;;25.62;32.07;97640.44;5093079;28;20035;-75
2023/03/24 08:25:35;;;;;;;1999.90;999.90;;;;;;;25.58;31.78;97637.66;5093171;28;20060;-75
2023/03/24 08:28:00;;;;;;;1999.90;999.90;;;;;;;24.17;33.37;97626.13;5093481;28;20110;-76
2023/03/24 08:30:26;;;;;;;1999.90;999.90;;;;;;;24.36;33.57;97631.41;5098685;28;20453;-78
2023/03/24 08:33:00;;;;;;;1999.90;999.90;;;;;;;24.94;32.26;97622.78;5102098;28;20032;-75
2023/03/24 08:35:30;;;;;;;1999.90;999.90;;;;;;;24.55;32.66;97621.88;5092989;28;20028;-74
2023/03/24 08:37:58;;;;;;;1999.90;999.90;;;;;;;25.36;31.53;97611.63;5093015;28;20047;-75
2023/03/24 08:40:25;;;;;;;1999.90;999.90;;;;;;;23.67;34.04;97611.88;5091511;28;20492;-74
2023/03/24 08:43:02;;;;;;;1999.90;999.90;;;;;;;23.83;34.16;97614.38;5093131;28;20111;-75
2023/03/24 08:45:30;;;;;;;1999.90;999.90;;;;;;;23.99;33.73;97606.47;5093064;28;20028;-74
2023/03/24 08:47:57;;;;;;;1999.90;999.90;;;;;;;24.22;33.37;97606.19;5094337;28;20048;-75
2023/03/24 08:50:26;;;;;;;1999.90;999.90;;;;;;;23.70;34.13;97601.91;5096612;28;20051;-75
2023/03/24 08:52:53;;;;;;;1999.90;999.90;;;;;;;24.31;33.64;97593.44;5094610;28;20126;-80
2023/03/24 08:55:19;;;;;;;1999.90;999.90;;;;;;;24.77;33.02;97596.38;5098889;28;20028;-76
2023/03/24 08:57:45;;;;;;;1999.90;999.90;;;;;;;23.49;33.93;97596.19;5106931;28;20055;-77
2023/03/24 09:00:15;;;;;;;1999.90;999.90;;;;;;;24.26;33.14;97590.22;5104916;28;20031;-77
2023/03/24 09:02:45;;;;;;;1999.90;999.90;;;;;;;26.70;29.57;97604.03;5101503;28;20028;-76
2023/03/24 09:05:11;;;;;;;1999.90;999.90;;;;;;;26.99;28.47;97605.47;5097813;28;20028;-74
2023/03/24 09:07:37;;;;;;;1999.90;999.90;;;;;;;26.69;28.87;97599.63;5104319;28;20028;-76
2023/03/24 09:10:05;;;;;;;1999.90;999.90;;;;;;;27.41;28.53;97598.72;5100751;28;20443;-83
2023/03/24 09:12:30;;;;;;;1999.90;999.90;;;;;;;27.25;28.10;97596.44;5099293;28;20038;-75
2023/03/24 09:14:56;;;;;;;1999.90;999.90;;;;;;;26.90;28.51;97591.09;5093617;28;20020;-76
2023/03/24 09:17:21;;;;;;;1999.90;999.90;;;;;;;25.67;29.35;97595.19;5093522;28;20377;-75
2023/03/24 09:19:47;;;;;;;1999.90;999.90;;;;;;;25.61;29.54;97594.00;5092071;28;20048;-75
2023/03/24 09:22:12;;;;;;;1999.90;999.90;;;;;;;26.06;29.44;97579.06;5091571;28;20055;-75
2023/03/24 09:24:37;;;;;;;1999.90;999.90;;;;;;;26.94;28.48;97581.41;5091660;28;20077;-76
2023/03/24 09:27:03;;;;;;;1999.90;999.90;;;;;;;27.01;28.45;97580.56;5091572;28;20077;-75
2023/03/24 09:29:29;;;;;;;1999.90;999.90;;;;;;;25.08;30.54;97575.22;5091538;28;20409;-75
2023/03/24 09:31:56;;;;;;;1999.90;999.90;;;;;;;25.18;30.18;97571.63;5092259;28;20036;-74
2023/03/24 09:34:22;;;;;;;1999.90;999.90;;;;;;;24.75;31.28;97565.16;5093039;28;20032;-74
2023/03/24 09:36:48;;;;;;;1999.90;999.90;;;;;;;24.19;31.74;97577.00;5092674;28;20074;-74
2023/03/24 09:39:13;;;;;;;1999.90;999.90;;;;;;;23.89;32.21;97568.91;5095974;28;20386;-75
2023/03/24 09:41:40;;;;;;;1999.90;999.90;;;;;;;24.58;31.49;97559.56;5091852;28;20028;-75
2023/03/24 09:44:21;;;;;;;1999.90;999.90;;;;;;;24.21;32.17;97562.66;5091245;28;20015;-74
2023/03/24 09:47:01;;;;;;;1999.90;999.90;;;;;;;23.87;32.75;97567.69;5089953;28;20479;-74
2023/03/24 09:49:33;;;;;;;1999.90;999.90;;;;;;;25.43;30.93;97575.22;5091481;28;20072;-75
2023/03/24 09:52:06;;;;;;;1999.90;999.90;;;;;;;25.52;30.48;97570.03;5091143;28;20030;-74
2023/03/24 09:54:45;;;;;;;1999.90;999.90;;;;;;;25.90;30.24;97565.50;5091036;28;20036;-74
2023/03/24 09:57:22;;;;;;;1999.90;999.90;;;;;;;25.70;30.31;97571.97;5091277;28;20054;-74
2023/03/24 09:59:47;;;;;;;1999.90;999.90;;;;;;;26.31;29.67;97554.56;5090937;28;20024;-74
2023/03/24 10:02:19;;;;;;;1999.90;999.90;;;;;;;27.69;27.67;97563.94;5090599;28;20020;-75
2023/03/24 10:04:45;;;;;;;1999.90;999.90;;;;;;;25.53;29.43;97556.78;5090857;28;20469;-74
2023/03/24 10:07:45;;;;;;;1999.90;999.90;;;;;;;25.45;28.68;97555.19;5090300;28;20034;-74
2023/03/24 10:10:58;;;;;;;1999.90;999.90;;;;;;;25.69;27.79;97561.94;5090781;28;20036;-75
2023/03/24 10:13:39;;;;;;;1999.90;999.90;;;;;;;25.26;28.45;97550.81;5087838;28;20119;-75
2023/03/24 10:16:34;;;;;;;1999.90;999.90;;;;;;;26.35;27.26;97551.69;5090631;28;20026;-74
2023/03/24 10:19:14;;;;;;;1999.90;999.90;;;;;;;27.13;26.46;97546.38;5090661;28;20059;-74
2023/03/24 10:21:49;;;;;;;1999.90;999.90;;;;;;;26.05;27.81;97541.81;5090627;28;20058;-75
2023/03/24 10:24:30;;;;;;;;;;;;;;;26.34;27.41;97558.53;5090980;28;20461;-74
2023/03/24 10:27:00;;;;;;;1999.90;999.90;;;;;;;24.68;29.68;97533.59;5090504;28;20376;-75
2023/03/24 10:29:32;;;;;;;1999.90;999.90;;;;;;;25.42;29.19;97548.38;5090520;28;20396;-75
2023/03/24 10:32:19;;;;;;;1999.90;999.90;;;;;;;25.33;29.50;97539.59;5091012;28;20485;-74
2023/03/24 10:34:51;;;;;;;1999.90;999.90;;;;;;;24.74;30.92;97534.78;5091195;28;20097;-75
2023/03/24 10:37:17;;;;;;;1999.90;999.90;;;;;;;24.95;30.13;97537.63;5091283;28;20027;-75
2023/03/24 10:39:43;;;;;;;1999.90;999.90;;;;;;;24.16;31.00;97533.06;5090504;28;20028;-75
2023/03/24 10:42:14;;;;;;;1999.90;999.90;;;;;;;24.58;30.99;97537.16;5089191;28;20022;-74
2023/03/24 10:44:40;;;;;;;1999.90;999.90;;;;;;;24.16;31.60;97544.25;5090553;28;20540;-74
2023/03/24 10:47:12;;;;;;;1999.90;999.90;;;;;;;24.77;31.20;97534.00;5090524;28;20030;-74
2023/03/24 10:49:50;;;;;;;1999.90;999.90;;;;;;;25.73;29.21;97540.31;5090835;28;20024;-74
2023/03/24 10:52:16;;;;;;;1999.90;999.90;;;;;;;24.38;31.18;97540.31;5090417;28;20032;-75
2023/03/24 10:54:53;;;;;;;1999.90;999.90;;;;;;;24.57;31.43;97539.16;5092475;28;20020;-74
2023/03/24 10:57:18;;;;;;;1999.90;999.90;;;;;;;25.23;30.60;97540.41;5090248;28;20380;-74
2023/03/24 11:00:14;;;;;;;1999.90;999.90;;;;;;;25.84;29.92;97543.91;5090327;28;20129;-75
2023/03/24 11:02:41;;;;;;;1999.90;999.90;;;;;;;25.20;30.26;97544.00;5090249;28;20425;-74
2023/03/24 11:05:14;;;;;;;1999.90;999.90;;;;;;;25.73;29.54;97535.53;5090279;28;20036;-74
2023/03/24 11:07:43;;;;;;;1999.90;999.90;;;;;;;25.42;29.66;97525.97;5089913;28;20036;-74
2023/03/24 11:10:08;;;;;;;1999.90;999.90;;;;;;;25.22;30.65;97524.00;5090243;28;20032;-74
2023/03/24 11:12:40;;;;;;;1999.90;999.90;;;;;;;24.68;31.38;97525.19;5088659;28;20122;-74